createdAt,value
2023-05-14T00:00:12.881Z,99635.31
2023-05-14T00:01:17.379Z,99636.72
2023-05-14T00:02:18.985Z,99641.03
2023-05-14T00:03:20.664Z,99642.41
2023-05-14T00:04:22.502Z,99635.31
2023-05-14T00:05:24.117Z,99634.22
2023-05-14T00:06:25.789Z,99634.66
2023-05-14T00:07:27.351Z,99629.38
2023-05-14T00:08:28.871Z,99630.06
2023-05-14T00:09:30.405Z,99630.06
2023-05-14T00:10:32.322Z,99631.16
2023-05-14T00:11:33.870Z,99628.53
2023-05-14T00:12:35.553Z,99625.31
2023-05-14T00:13:37.160Z,99628.13
2023-05-14T00:14:38.684Z,99628.94
2023-05-14T00:15:40.230Z,99628.94
2023-05-14T00:16:41.750Z,99627.25
2023-05-14T00:17:43.354Z,99630.31
2023-05-14T00:18:44.943Z,99624.34
2023-05-14T00:19:46.484Z,99632.81
2023-05-14T00:20:48.013Z,99629.91
2023-05-14T00:21:49.616Z,99631.91
2023-05-14T00:22:51.129Z,99633.53
2023-05-14T00:23:52.719Z,99632.84
2023-05-14T00:24:54.249Z,99633.81
2023-05-14T00:25:55.817Z,99628.16
2023-05-14T00:26:57.340Z,99637.56
2023-05-14T00:27:58.909Z,99632.88
2023-05-14T00:29:00.450Z,99644.28
2023-05-14T00:30:04.631Z,99627.22
2023-05-14T00:31:06.316Z,99619.28
2023-05-14T00:32:08.218Z,99631.69
2023-05-14T00:33:09.799Z,99632.19
2023-05-14T00:34:11.512Z,99637.16
2023-05-14T00:35:13.228Z,99628.94
2023-05-14T00:36:14.731Z,99639.53
2023-05-14T00:37:16.347Z,99629.53
2023-05-14T00:38:17.933Z,99629.41
2023-05-14T00:39:19.543Z,99634.53
2023-05-14T00:40:25.669Z,99626.50
2023-05-14T00:41:27.792Z,99632.63
2023-05-14T00:42:29.337Z,99633.44
2023-05-14T00:43:30.873Z,99621.66
2023-05-14T00:44:32.685Z,99634.00
2023-05-14T00:45:34.305Z,99628.91
2023-05-14T00:46:35.918Z,99631.59
2023-05-14T00:47:37.810Z,99626.28
2023-05-14T00:48:39.567Z,99625.97
2023-05-14T00:49:41.591Z,99624.06
2023-05-14T00:50:43.378Z,99627.72
2023-05-14T00:51:45.546Z,99629.84
2023-05-14T00:52:47.332Z,99629.53
2023-05-14T00:53:49.946Z,99633.41
2023-05-14T00:54:51.859Z,99634.16
2023-05-14T00:55:53.433Z,99635.88
2023-05-14T00:56:55.503Z,99637.84
2023-05-14T00:57:58.857Z,99634.84
2023-05-14T00:59:00.591Z,99631.66
2023-05-14T01:00:03.270Z,99641.34
2023-05-14T01:01:05.127Z,99632.47
2023-05-14T01:02:06.793Z,99635.22
2023-05-14T01:03:09.064Z,99634.97
2023-05-14T01:04:11.807Z,99639.13
2023-05-14T01:05:13.376Z,99638.44
2023-05-14T01:06:32.724Z,99648.00
2023-05-14T01:08:00.559Z,99648.16
2023-05-14T01:09:25.383Z,99643.59
2023-05-14T01:10:37.688Z,99647.59
2023-05-14T01:12:06.747Z,99650.50
2023-05-14T01:13:16.659Z,99655.75
2023-05-14T01:14:29.890Z,99651.19
2023-05-14T01:15:34.425Z,99654.09
2023-05-14T01:16:38.396Z,99645.34
2023-05-14T01:17:54.121Z,99645.22
2023-05-14T01:18:57.005Z,99638.00
2023-05-14T01:19:59.653Z,99646.88
2023-05-14T01:21:01.792Z,99639.09
2023-05-14T01:22:03.491Z,99640.91
2023-05-14T01:23:05.079Z,99638.66
2023-05-14T01:24:07.582Z,99641.81
2023-05-14T01:25:09.570Z,99626.75
2023-05-14T01:26:11.108Z,99631.59
2023-05-14T01:27:24.523Z,99636.41
2023-05-14T01:28:32.561Z,99638.16
2023-05-14T01:29:37.553Z,99633.13
2023-05-14T01:30:53.190Z,99637.28
2023-05-14T01:31:57.981Z,99636.91
2023-05-14T01:33:02.430Z,99639.56
2023-05-14T01:34:05.595Z,99636.66
2023-05-14T01:35:09.500Z,99632.34
2023-05-14T01:36:11.396Z,99631.38
2023-05-14T01:37:13.602Z,99627.09
2023-05-14T01:38:17.800Z,99628.25
2023-05-14T01:39:19.738Z,99622.88
2023-05-14T01:40:22.859Z,99624.38
2023-05-14T01:41:25.814Z,99619.00
2023-05-14T01:42:28.531Z,99629.81
2023-05-14T01:43:30.649Z,99623.56
2023-05-14T01:44:33.000Z,99627.81
2023-05-14T01:45:35.654Z,99628.09
2023-05-14T01:46:37.450Z,99630.84
2023-05-14T01:47:39.378Z,99637.06
2023-05-14T01:48:40.921Z,99627.88
2023-05-14T01:49:42.451Z,99631.94
2023-05-14T01:50:44.054Z,99635.28
2023-05-14T01:51:45.760Z,99631.34
2023-05-14T01:52:47.572Z,99629.41
2023-05-14T01:53:49.088Z,99630.94
2023-05-14T01:54:50.709Z,99626.00
2023-05-14T01:55:52.270Z,99626.44
2023-05-14T01:56:53.870Z,99620.56
2023-05-14T01:57:55.442Z,99619.22
2023-05-14T01:58:56.987Z,99620.63
2023-05-14T01:59:58.925Z,99624.44
2023-05-14T02:01:04.052Z,99626.00
2023-05-14T02:02:05.649Z,99620.56
2023-05-14T02:03:07.196Z,99621.44
2023-05-14T02:04:09.012Z,99623.69
2023-05-14T02:05:12.070Z,99625.47
2023-05-14T02:06:13.768Z,99619.13
2023-05-14T02:07:15.332Z,99617.56
2023-05-14T02:08:16.844Z,99615.41
2023-05-14T02:09:18.420Z,99618.63
2023-05-14T02:10:20.103Z,99613.91
2023-05-14T02:11:24.575Z,99610.47
2023-05-14T02:12:26.112Z,99614.06
2023-05-14T02:13:27.679Z,99606.00
2023-05-14T02:14:29.217Z,99613.53
2023-05-14T02:15:30.798Z,99617.72
2023-05-14T02:16:32.420Z,99608.56
2023-05-14T02:17:34.132Z,99605.81
2023-05-14T02:18:35.678Z,99608.47
2023-05-14T02:19:37.388Z,99605.69
2023-05-14T02:20:38.935Z,99602.09
2023-05-14T02:21:40.632Z,99600.03
2023-05-14T02:22:42.244Z,99602.97
2023-05-14T02:23:43.828Z,99599.13
2023-05-14T02:24:45.395Z,99601.50
2023-05-14T02:25:46.873Z,99598.97
2023-05-14T02:26:48.541Z,99586.63
2023-05-14T02:27:50.069Z,99592.28
2023-05-14T02:28:51.623Z,99592.97
2023-05-14T02:29:53.537Z,99583.13
2023-05-14T02:31:01.239Z,99586.34
2023-05-14T02:32:02.840Z,99583.00
2023-05-14T02:33:04.460Z,99584.53
2023-05-14T02:34:06.391Z,99583.56
2023-05-14T02:35:09.075Z,99585.69
2023-05-14T02:36:10.614Z,99582.78
2023-05-14T02:37:12.617Z,99582.19
2023-05-14T02:38:14.165Z,99584.13
2023-05-14T02:39:15.703Z,99582.34
2023-05-14T02:40:20.383Z,99578.88
2023-05-14T02:41:21.968Z,99573.75
2023-05-14T02:42:23.560Z,99580.22
2023-05-14T02:43:25.132Z,99572.59
2023-05-14T02:44:27.094Z,99576.88
2023-05-14T02:45:28.612Z,99573.00
2023-05-14T02:46:31.376Z,99568.03
2023-05-14T02:47:33.114Z,99565.53
2023-05-14T02:48:34.704Z,99566.22
2023-05-14T02:49:36.397Z,99567.75
2023-05-14T02:50:37.975Z,99568.03
2023-05-14T02:51:39.511Z,99569.28
2023-05-14T02:52:41.031Z,99560.50
2023-05-14T02:53:42.655Z,99557.03
2023-05-14T02:54:44.209Z,99565.22
2023-05-14T02:55:45.764Z,99560.38
2023-05-14T02:56:47.458Z,99563.88
2023-05-14T02:57:49.002Z,99567.19
2023-05-14T02:58:50.550Z,99568.59
2023-05-14T02:59:52.161Z,99569.69
2023-05-14T03:00:54.258Z,99568.72
2023-05-14T03:01:56.452Z,99574.72
2023-05-14T03:02:58.564Z,99571.53
2023-05-14T03:04:00.792Z,99574.06
2023-05-14T03:05:02.497Z,99577.84
2023-05-14T03:06:05.132Z,99576.13
2023-05-14T03:07:06.723Z,99576.88
2023-05-14T03:08:08.307Z,99573.59
2023-05-14T03:09:10.033Z,99581.63
2023-05-14T03:10:11.607Z,99573.16
2023-05-14T03:11:13.257Z,99568.59
2023-05-14T03:12:14.792Z,99568.16
2023-05-14T03:13:16.281Z,99579.03
2023-05-14T03:14:17.874Z,99573.06
2023-05-14T03:15:19.546Z,99570.78
2023-05-14T03:16:21.215Z,99567.25
2023-05-14T03:17:22.836Z,99571.88
2023-05-14T03:18:25.024Z,99572.22
2023-05-14T03:19:26.827Z,99559.50
2023-05-14T03:20:28.601Z,99567.59
2023-05-14T03:21:30.187Z,99570.44
2023-05-14T03:22:31.852Z,99568.38
2023-05-14T03:23:33.502Z,99562.72
2023-05-14T03:24:35.108Z,99566.50
2023-05-14T03:25:37.613Z,99568.03
2023-05-14T03:26:39.164Z,99565.41
2023-05-14T03:27:40.702Z,99568.91
2023-05-14T03:28:42.546Z,99571.13
2023-05-14T03:29:44.083Z,99568.09
2023-05-14T03:30:45.716Z,99568.69
2023-05-14T03:31:47.278Z,99559.94
2023-05-14T03:32:48.946Z,99567.59
2023-05-14T03:33:50.551Z,99566.03
2023-05-14T03:34:52.181Z,99559.69
2023-05-14T03:35:53.753Z,99554.72
2023-05-14T03:36:57.312Z,99556.50
2023-05-14T03:37:58.812Z,99554.56
2023-05-14T03:39:00.294Z,99547.50
2023-05-14T03:40:01.858Z,99549.19
2023-05-14T03:41:03.438Z,99550.72
2023-05-14T03:42:05.180Z,99552.81
2023-05-14T03:43:06.760Z,99551.72
2023-05-14T03:44:08.726Z,99550.06
2023-05-14T03:45:10.848Z,99549.22
2023-05-14T03:46:12.404Z,99543.13
2023-05-14T03:47:14.015Z,99549.94
2023-05-14T03:48:15.651Z,99553.28
2023-05-14T03:49:17.249Z,99551.47
2023-05-14T03:50:19.894Z,99542.06
2023-05-14T03:51:21.427Z,99552.72
2023-05-14T03:52:22.992Z,99550.38
2023-05-14T03:53:24.523Z,99549.63
2023-05-14T03:54:26.504Z,99542.25
2023-05-14T03:55:28.258Z,99544.38
2023-05-14T03:56:29.821Z,99541.47
2023-05-14T03:57:31.337Z,99546.06
2023-05-14T03:58:32.867Z,99546.75
2023-05-14T03:59:34.954Z,99548.72
2023-05-14T04:00:36.540Z,99548.44
2023-05-14T04:01:38.691Z,99546.84
2023-05-14T04:02:40.338Z,99551.75
2023-05-14T04:03:42.108Z,99540.22
2023-05-14T04:04:43.827Z,99544.81
2023-05-14T04:05:45.465Z,99545.09
2023-05-14T04:06:47.035Z,99547.06
2023-05-14T04:07:48.540Z,99543.34
2023-05-14T04:08:50.103Z,99547.06
2023-05-14T04:09:51.656Z,99544.84
2023-05-14T04:10:53.235Z,99544.84
2023-05-14T04:11:57.740Z,99541.78
2023-05-14T04:12:59.496Z,99545.13
2023-05-14T04:14:05.814Z,99547.91
2023-05-14T04:15:08.032Z,99551.41
2023-05-14T04:16:09.626Z,99551.28
2023-05-14T04:17:11.177Z,99544.19
2023-05-14T04:18:12.875Z,99552.38
2023-05-14T04:19:14.546Z,99550.97
2023-05-14T04:20:16.850Z,99549.19
2023-05-14T04:21:18.445Z,99551.44
2023-05-14T04:22:19.952Z,99557.66
2023-05-14T04:23:21.860Z,99552.66
2023-05-14T04:24:23.380Z,99556.56
2023-05-14T04:25:24.863Z,99552.78
2023-05-14T04:26:26.450Z,99555.56
2023-05-14T04:27:28.742Z,99553.75
2023-05-14T04:28:30.246Z,99551.66
2023-05-14T04:29:31.741Z,99546.25
2023-05-14T04:30:33.314Z,99543.91
2023-05-14T04:31:34.931Z,99553.22
2023-05-14T04:32:36.541Z,99550.28
2023-05-14T04:33:38.149Z,99549.75
2023-05-14T04:34:39.670Z,99549.06
2023-05-14T04:35:41.297Z,99552.38
2023-05-14T04:36:42.817Z,99549.75
2023-05-14T04:37:44.364Z,99555.31
2023-05-14T04:38:45.893Z,99560.59
2023-05-14T04:39:47.426Z,99557.66
2023-05-14T04:40:48.984Z,99559.31
2023-05-14T04:41:50.516Z,99559.44
2023-05-14T04:42:52.051Z,99565.97
2023-05-14T04:43:56.211Z,99562.50
2023-05-14T04:44:57.729Z,99571.38
2023-05-14T04:45:59.246Z,99570.00
2023-05-14T04:47:00.829Z,99567.78
2023-05-14T04:48:03.923Z,99564.16
2023-05-14T04:49:05.450Z,99561.06
2023-05-14T04:50:07.784Z,99566.22
2023-05-14T04:51:09.586Z,99565.13
2023-05-14T04:52:11.355Z,99559.16
2023-05-14T04:53:12.880Z,99557.06
2023-05-14T04:54:14.478Z,99564.56
2023-05-14T04:55:16.066Z,99563.34
2023-05-14T04:56:17.626Z,99566.28
2023-05-14T04:57:19.222Z,99568.50
2023-05-14T04:58:20.727Z,99570.44
2023-05-14T04:59:22.571Z,99574.19
2023-05-14T05:00:24.706Z,99573.22
2023-05-14T05:01:26.585Z,99566.16
2023-05-14T05:02:28.182Z,99572.41
2023-05-14T05:03:29.815Z,99562.38
2023-05-14T05:04:31.696Z,99570.56
2023-05-14T05:05:33.171Z,99570.16
2023-05-14T05:06:34.738Z,99570.84
2023-05-14T05:07:36.294Z,99574.47
2023-05-14T05:08:37.818Z,99561.16
2023-05-14T05:09:39.379Z,99566.56
2023-05-14T05:10:40.865Z,99566.69
2023-05-14T05:11:42.397Z,99564.88
2023-05-14T05:12:43.939Z,99571.28
2023-05-14T05:13:45.456Z,99570.84
2023-05-14T05:14:48.178Z,99564.63
2023-05-14T05:15:49.800Z,99560.16
2023-05-14T05:16:51.483Z,99570.00
2023-05-14T05:17:53.064Z,99562.66
2023-05-14T05:18:54.653Z,99566.56
2023-05-14T05:19:56.309Z,99567.66
2023-05-14T05:20:57.850Z,99563.91
2023-05-14T05:21:59.462Z,99568.91
2023-05-14T05:23:01.027Z,99565.28
2023-05-14T05:24:02.612Z,99572.97
2023-05-14T05:25:04.455Z,99569.59
2023-05-14T05:26:05.996Z,99562.66
2023-05-14T05:27:07.570Z,99566.16
2023-05-14T05:28:09.093Z,99572.25
2023-05-14T05:29:10.639Z,99571.72
2023-05-14T05:30:12.439Z,99563.78
2023-05-14T05:31:14.101Z,99565.03
2023-05-14T05:32:15.735Z,99567.53
2023-05-14T05:33:17.331Z,99572.25
2023-05-14T05:34:18.873Z,99563.50
2023-05-14T05:35:20.411Z,99564.06
2023-05-14T05:36:21.953Z,99563.78
2023-05-14T05:37:23.453Z,99564.84
2023-05-14T05:38:25.018Z,99568.47
2023-05-14T05:39:26.518Z,99559.16
2023-05-14T05:40:28.137Z,99556.19
2023-05-14T05:41:29.680Z,99559.25
2023-05-14T05:42:31.248Z,99559.88
2023-05-14T05:43:32.764Z,99559.56
2023-05-14T05:44:34.428Z,99563.09
2023-05-14T05:45:35.938Z,99554.38
2023-05-14T05:46:37.548Z,99551.59
2023-05-14T05:47:39.311Z,99553.25
2023-05-14T05:48:40.867Z,99545.66
2023-05-14T05:49:42.496Z,99543.31
2023-05-14T05:50:47.000Z,99541.63
2023-05-14T05:51:48.679Z,99540.59
2023-05-14T05:52:50.212Z,99544.00
2023-05-14T05:53:51.752Z,99540.47
2023-05-14T05:54:53.333Z,99539.22
2023-05-14T05:55:54.883Z,99537.09
2023-05-14T05:56:56.472Z,99529.88
2023-05-14T05:57:58.017Z,99530.63
2023-05-14T05:58:59.540Z,99532.78
2023-05-14T06:00:01.067Z,99528.81
2023-05-14T06:01:02.658Z,99524.84
2023-05-14T06:02:04.494Z,99530.03
2023-05-14T06:03:06.052Z,99520.56
2023-05-14T06:04:07.720Z,99523.22
2023-05-14T06:05:10.675Z,99524.88
2023-05-14T06:06:12.342Z,99527.19
2023-05-14T06:07:13.890Z,99524.72
2023-05-14T06:08:15.405Z,99531.72
2023-05-14T06:09:16.972Z,99527.72
2023-05-14T06:10:18.817Z,99524.06
2023-05-14T06:11:20.326Z,99519.88
2023-05-14T06:12:21.955Z,99510.88
2023-05-14T06:13:23.502Z,99525.00
2023-05-14T06:14:25.107Z,99517.31
2023-05-14T06:15:26.666Z,99528.59
2023-05-14T06:16:28.290Z,99526.44
2023-05-14T06:17:29.853Z,99524.94
2023-05-14T06:18:31.526Z,99522.56
2023-05-14T06:19:33.108Z,99527.28
2023-05-14T06:20:34.751Z,99521.44
2023-05-14T06:21:36.303Z,99526.44
2023-05-14T06:22:37.967Z,99527.81
2023-05-14T06:23:39.770Z,99523.13
2023-05-14T06:24:41.348Z,99524.56
2023-05-14T06:25:42.889Z,99527.38
2023-05-14T06:26:44.385Z,99528.44
2023-05-14T06:27:45.988Z,99527.59
2023-05-14T06:28:47.526Z,99526.44
2023-05-14T06:29:49.070Z,99529.88
2023-05-14T06:30:50.662Z,99525.06
2023-05-14T06:31:52.549Z,99529.38
2023-05-14T06:32:54.238Z,99527.66
2023-05-14T06:33:55.858Z,99528.63
2023-05-14T06:34:57.403Z,99529.63
2023-05-14T06:36:00.621Z,99530.56
2023-05-14T06:37:02.165Z,99526.78
2023-05-14T06:38:03.716Z,99526.97
2023-05-14T06:39:05.246Z,99525.78
2023-05-14T06:40:07.416Z,99522.56
2023-05-14T06:41:08.980Z,99524.84
2023-05-14T06:42:10.544Z,99519.66
2023-05-14T06:43:12.088Z,99525.44
2023-05-14T06:44:13.641Z,99516.44
2023-05-14T06:45:15.299Z,99526.34
2023-05-14T06:46:16.927Z,99522.03
2023-05-14T06:47:18.481Z,99525.75
2023-05-14T06:48:20.500Z,99519.66
2023-05-14T06:49:22.091Z,99523.03
2023-05-14T06:50:23.849Z,99520.59
2023-05-14T06:51:25.710Z,99518.69
2023-05-14T06:52:27.367Z,99518.47
2023-05-14T06:53:28.865Z,99526.06
2023-05-14T06:54:30.421Z,99517.00
2023-05-14T06:55:31.950Z,99524.94
2023-05-14T06:56:33.555Z,99523.38
2023-05-14T06:57:35.083Z,99521.31
2023-05-14T06:58:36.591Z,99525.03
2023-05-14T06:59:38.245Z,99517.97
2023-05-14T07:00:40.062Z,99512.28
2023-05-14T07:01:41.680Z,99520.47
2023-05-14T07:02:43.300Z,99518.22
2023-05-14T07:03:44.897Z,99519.50
2023-05-14T07:04:46.619Z,99519.19
2023-05-14T07:05:48.339Z,99515.94
2023-05-14T07:06:49.898Z,99511.88
2023-05-14T07:07:51.565Z,99520.34
2023-05-14T07:08:53.089Z,99520.06
2023-05-14T07:09:54.641Z,99515.09
2023-05-14T07:10:56.158Z,99518.81
2023-05-14T07:11:57.713Z,99517.47
2023-05-14T07:12:59.231Z,99517.38
2023-05-14T07:14:00.940Z,99526.28
2023-05-14T07:15:02.525Z,99527.81
2023-05-14T07:16:04.349Z,99519.28
2023-05-14T07:17:05.938Z,99533.63
2023-05-14T07:18:07.739Z,99527.72
2023-05-14T07:19:09.413Z,99527.94
2023-05-14T07:20:11.614Z,99523.13
2023-05-14T07:21:13.202Z,99518.63
2023-05-14T07:22:16.595Z,99522.66
2023-05-14T07:23:19.931Z,99526.09
2023-05-14T07:24:21.619Z,99523.81
2023-05-14T07:25:23.267Z,99534.16
2023-05-14T07:26:24.802Z,99527.03
2023-05-14T07:27:26.371Z,99539.06
2023-05-14T07:28:27.919Z,99532.47
2023-05-14T07:29:29.509Z,99528.59
2023-05-14T07:30:31.166Z,99527.72
2023-05-14T07:31:32.891Z,99519.72
2023-05-14T07:32:34.591Z,99517.28
2023-05-14T07:33:36.538Z,99512.94
2023-05-14T07:34:38.172Z,99521.69
2023-05-14T07:35:39.807Z,99513.66
2023-05-14T07:36:41.495Z,99508.28
2023-05-14T07:37:43.268Z,99505.72
2023-05-14T07:38:44.876Z,99497.47
2023-05-14T07:39:46.437Z,99505.34
2023-05-14T07:40:48.005Z,99504.19
2023-05-14T07:41:49.525Z,99493.47
2023-05-14T07:42:51.347Z,99504.06
2023-05-14T07:43:52.914Z,99493.00
2023-05-14T07:44:54.497Z,99493.34
2023-05-14T07:45:56.042Z,99493.69
2023-05-14T07:46:57.736Z,99496.53
2023-05-14T07:47:59.593Z,99502.59
2023-05-14T07:49:01.287Z,99494.41
2023-05-14T07:50:03.230Z,99482.31
2023-05-14T07:51:04.811Z,99484.66
2023-05-14T07:52:08.373Z,99492.28
2023-05-14T07:53:09.981Z,99484.53
2023-05-14T07:54:11.527Z,99483.16
2023-05-14T07:55:13.107Z,99482.03
2023-05-14T07:56:14.656Z,99476.56
2023-05-14T07:57:16.188Z,99480.50
2023-05-14T07:58:17.729Z,99481.41
2023-05-14T07:59:19.502Z,99480.72
2023-05-14T08:00:21.101Z,99476.13
2023-05-14T08:01:23.259Z,99461.63
2023-05-14T08:02:24.917Z,99472.56
2023-05-14T08:03:26.784Z,99475.38
2023-05-14T08:04:28.472Z,99468.56
2023-05-14T08:05:30.087Z,99467.41
2023-05-14T08:06:31.603Z,99467.03
2023-05-14T08:07:33.134Z,99449.34
2023-05-14T08:08:35.005Z,99458.03
2023-05-14T08:09:36.862Z,99460.66
2023-05-14T08:10:38.571Z,99458.66
2023-05-14T08:11:40.513Z,99457.59
2023-05-14T08:12:42.190Z,99447.28
2023-05-14T08:13:43.896Z,99457.53
2023-05-14T08:14:45.419Z,99458.09
2023-05-14T08:15:47.049Z,99459.09
2023-05-14T08:16:48.661Z,99460.13
2023-05-14T08:17:50.354Z,99449.19
2023-05-14T08:18:52.163Z,99454.47
2023-05-14T08:19:53.953Z,99454.31
2023-05-14T08:20:55.480Z,99447.22
2023-05-14T08:21:58.427Z,99438.25
2023-05-14T08:22:59.948Z,99436.22
2023-05-14T08:24:01.498Z,99436.88
2023-05-14T08:25:03.205Z,99444.13
2023-05-14T08:26:04.842Z,99438.81
2023-05-14T08:27:06.381Z,99427.03
2023-05-14T08:28:08.036Z,99432.59
2023-05-14T08:29:11.013Z,99431.81
2023-05-14T08:30:13.769Z,99431.81
2023-05-14T08:31:15.409Z,99431.34
2023-05-14T08:32:23.518Z,99432.34
2023-05-14T08:33:25.801Z,99433.16
2023-05-14T08:34:27.386Z,99429.44
2023-05-14T08:35:29.047Z,99436.06
2023-05-14T08:36:30.592Z,99426.78
2023-05-14T08:37:32.150Z,99430.75
2023-05-14T08:38:33.852Z,99425.72
2023-05-14T08:39:35.375Z,99429.81
2023-05-14T08:40:37.053Z,99426.09
2023-05-14T08:41:39.903Z,99425.72
2023-05-14T08:42:41.422Z,99429.91
2023-05-14T08:43:59.182Z,99431.22
2023-05-14T08:45:03.024Z,99435.00
2023-05-14T08:46:05.956Z,99435.56
2023-05-14T08:47:07.586Z,99433.28
2023-05-14T08:48:13.408Z,99433.03
2023-05-14T08:49:19.090Z,99436.97
2023-05-14T08:50:23.028Z,99428.63
2023-05-14T08:51:27.604Z,99429.69
2023-05-14T08:52:29.950Z,99425.38
2023-05-14T08:53:31.509Z,99428.06
2023-05-14T08:54:33.303Z,99418.81
2023-05-14T08:55:36.430Z,99424.19
2023-05-14T08:56:39.023Z,99423.94
2023-05-14T08:57:40.653Z,99423.72
2023-05-14T08:58:42.199Z,99422.56
2023-05-14T08:59:43.821Z,99423.97
2023-05-14T09:00:45.488Z,99419.00
2023-05-14T09:01:51.572Z,99423.16
2023-05-14T09:02:53.293Z,99421.31
2023-05-14T09:03:55.059Z,99424.28
2023-05-14T09:05:01.749Z,99423.28
2023-05-14T09:06:04.760Z,99417.31
2023-05-14T09:07:07.348Z,99428.00
2023-05-14T09:08:08.871Z,99427.53
2023-05-14T09:09:10.749Z,99421.13
2023-05-14T09:10:12.378Z,99425.59
2023-05-14T09:11:13.942Z,99425.66
2023-05-14T09:12:15.482Z,99423.03
2023-05-14T09:13:17.046Z,99420.19
2023-05-14T09:14:19.604Z,99421.00
2023-05-14T09:15:21.192Z,99430.88
2023-05-14T09:16:25.460Z,99434.25
2023-05-14T09:17:27.222Z,99425.41
2023-05-14T09:18:28.978Z,99424.56
2023-05-14T09:19:30.896Z,99423.09
2023-05-14T09:20:32.624Z,99427.72
2023-05-14T09:21:34.890Z,99422.38
2023-05-14T09:22:36.450Z,99428.72
2023-05-14T09:23:42.549Z,99423.94
2023-05-14T09:24:44.825Z,99418.53
2023-05-14T09:25:47.904Z,99426.97
2023-05-14T09:26:51.113Z,99423.06
2023-05-14T09:27:52.652Z,99415.09
2023-05-14T09:28:58.707Z,99413.50
2023-05-14T09:30:11.298Z,99418.91
2023-05-14T09:31:13.131Z,99416.00
2023-05-14T09:32:14.686Z,99418.94
2023-05-14T09:33:26.221Z,99417.31
2023-05-14T09:34:28.602Z,99414.00
2023-05-14T09:35:30.175Z,99410.56
2023-05-14T09:36:34.341Z,99407.09
2023-05-14T09:37:41.776Z,99415.50
2023-05-14T09:38:43.558Z,99397.31
2023-05-14T09:39:45.122Z,99409.28
2023-05-14T09:40:46.788Z,99409.47
2023-05-14T09:41:48.337Z,99404.06
2023-05-14T09:42:50.213Z,99411.47
2023-05-14T09:43:51.983Z,99409.34
2023-05-14T09:44:53.755Z,99405.81
2023-05-14T09:45:55.312Z,99407.88
2023-05-14T09:46:56.944Z,99400.41
2023-05-14T09:48:00.269Z,99403.97
2023-05-14T09:49:01.881Z,99399.44
2023-05-14T09:50:06.597Z,99399.84
2023-05-14T09:51:10.393Z,99404.81
2023-05-14T09:52:13.058Z,99400.41
2023-05-14T09:53:14.622Z,99401.47
2023-05-14T09:54:16.376Z,99395.72
2023-05-14T09:55:20.048Z,99396.06
2023-05-14T09:56:21.598Z,99396.75
2023-05-14T09:57:23.214Z,99394.31
2023-05-14T09:58:24.751Z,99393.81
2023-05-14T09:59:26.308Z,99394.31
2023-05-14T10:00:29.875Z,99392.91
2023-05-14T10:01:32.539Z,99391.78
2023-05-14T10:02:38.272Z,99393.22
2023-05-14T10:03:40.783Z,99386.06
2023-05-14T10:04:44.140Z,99385.91
2023-05-14T10:05:48.884Z,99382.25
2023-05-14T10:06:53.216Z,99380.03
2023-05-14T10:07:59.085Z,99378.41
2023-05-14T10:09:05.603Z,99375.53
2023-05-14T10:10:10.579Z,99378.41
2023-05-14T10:11:18.960Z,99377.59
2023-05-14T10:12:23.076Z,99368.09
2023-05-14T10:13:37.303Z,99380.28
2023-05-14T10:14:42.913Z,99374.28
2023-05-14T10:15:52.030Z,99374.06
2023-05-14T10:16:56.067Z,99369.94
2023-05-14T10:18:00.893Z,99357.59
2023-05-14T10:19:10.070Z,99356.16
2023-05-14T10:20:15.515Z,99365.19
2023-05-14T10:21:20.854Z,99359.22
2023-05-14T10:22:26.934Z,99360.22
2023-05-14T10:23:28.784Z,99357.31
2023-05-14T10:24:30.842Z,99350.91
2023-05-14T10:25:33.076Z,99354.81
2023-05-14T10:26:37.876Z,99349.50
2023-05-14T10:27:40.978Z,99352.63
2023-05-14T10:28:43.172Z,99356.34
2023-05-14T10:29:52.005Z,99356.34
2023-05-14T10:30:54.599Z,99356.94
2023-05-14T10:31:56.228Z,99361.28
2023-05-14T10:33:13.572Z,99356.16
2023-05-14T10:34:37.649Z,99355.13
2023-05-14T10:36:04.014Z,99354.88
2023-05-14T10:37:08.276Z,99350.91
2023-05-14T10:38:09.852Z,99351.16
2023-05-14T10:39:11.420Z,99354.03
2023-05-14T10:40:13.955Z,99349.31
2023-05-14T10:41:15.645Z,99352.00
2023-05-14T10:42:21.777Z,99355.72
2023-05-14T10:43:26.586Z,99349.34
2023-05-14T10:44:28.995Z,99347.91
2023-05-14T10:45:30.576Z,99354.69
2023-05-14T10:46:32.353Z,99356.75
2023-05-14T10:47:38.990Z,99359.00
2023-05-14T10:48:44.105Z,99362.91
2023-05-14T10:49:47.015Z,99360.41
2023-05-14T10:50:50.650Z,99353.84
2023-05-14T10:51:53.959Z,99356.31
2023-05-14T10:52:56.061Z,99351.34
2023-05-14T10:54:00.886Z,99350.97
2023-05-14T10:55:04.862Z,99356.78
2023-05-14T10:56:13.626Z,99335.34
2023-05-14T10:57:15.388Z,99336.56
2023-05-14T10:58:18.062Z,99334.31
2023-05-14T10:59:19.605Z,99326.69
2023-05-14T11:00:25.774Z,99343.97
2023-05-14T11:01:27.864Z,99340.03
2023-05-14T11:02:31.876Z,99340.28
2023-05-14T11:03:40.166Z,99334.69
2023-05-14T11:04:41.708Z,99337.59
2023-05-14T11:05:44.733Z,99334.63
2023-05-14T11:06:47.147Z,99332.97
2023-05-14T11:07:50.104Z,99338.13
2023-05-14T11:08:52.412Z,99340.19
2023-05-14T11:09:57.837Z,99330.09
2023-05-14T11:11:00.064Z,99331.72
2023-05-14T11:12:01.645Z,99330.22
2023-05-14T11:13:03.263Z,99333.50
2023-05-14T11:14:04.885Z,99338.22
2023-05-14T11:15:11.197Z,99337.59
2023-05-14T11:16:22.680Z,99340.69
2023-05-14T11:17:29.803Z,99337.81
2023-05-14T11:18:34.794Z,99335.06
2023-05-14T11:19:36.460Z,99333.41
2023-05-14T11:20:38.153Z,99336.66
2023-05-14T11:21:39.713Z,99326.56
2023-05-14T11:22:42.892Z,99331.94
2023-05-14T11:23:46.592Z,99328.63
2023-05-14T11:24:48.693Z,99320.22
2023-05-14T11:25:52.029Z,99320.47
2023-05-14T11:26:53.684Z,99314.88
2023-05-14T11:27:55.269Z,99315.09
2023-05-14T11:28:56.894Z,99318.59
2023-05-14T11:29:58.511Z,99309.97
2023-05-14T11:31:00.047Z,99310.84
2023-05-14T11:32:02.997Z,99311.25
2023-05-14T11:33:04.800Z,99314.09
2023-05-14T11:34:07.664Z,99306.09
2023-05-14T11:35:09.381Z,99309.19
2023-05-14T11:36:11.508Z,99314.72
2023-05-14T11:37:15.588Z,99318.00
2023-05-14T11:38:19.216Z,99311.88
2023-05-14T11:39:20.794Z,99310.81
2023-05-14T11:40:22.700Z,99308.91
2023-05-14T11:41:24.512Z,99308.50
2023-05-14T11:42:26.075Z,99301.94
2023-05-14T11:43:28.030Z,99311.19
2023-05-14T11:44:29.951Z,99301.75
2023-05-14T11:45:31.628Z,99297.06
2023-05-14T11:46:33.375Z,99302.00
2023-05-14T11:47:35.100Z,99294.59
2023-05-14T11:48:36.658Z,99301.38
2023-05-14T11:49:38.244Z,99290.25
2023-05-14T11:50:39.804Z,99293.53
2023-05-14T11:51:41.341Z,99293.13
2023-05-14T11:52:42.861Z,99298.25
2023-05-14T11:53:44.957Z,99296.19
2023-05-14T11:54:46.748Z,99292.72
2023-05-14T11:55:48.332Z,99293.53
2023-05-14T11:56:51.541Z,99287.38
2023-05-14T11:57:53.734Z,99287.59
2023-05-14T11:58:57.118Z,99285.78
2023-05-14T11:59:58.747Z,99285.97
2023-05-14T12:01:00.518Z,99285.56
2023-05-14T12:02:03.927Z,99286.56
2023-05-14T12:03:05.871Z,99286.16
2023-05-14T12:04:07.594Z,99286.94
2023-05-14T12:05:12.941Z,99282.81
2023-05-14T12:06:14.478Z,99281.16
2023-05-14T12:07:16.770Z,99276.03
2023-05-14T12:08:22.771Z,99284.03
2023-05-14T12:09:24.728Z,99273.97
2023-05-14T12:10:26.539Z,99283.63
2023-05-14T12:11:31.568Z,99281.34
2023-05-14T12:12:36.601Z,99285.84
2023-05-14T12:13:39.620Z,99277.84
2023-05-14T12:14:42.984Z,99281.72